createdAt,value
2022-09-28T00:01:18.192Z,12.23
2022-09-28T00:03:44.991Z,12.15
2022-09-28T00:06:12.551Z,12.20
2022-09-28T00:08:38.996Z,12.21
2022-09-28T00:11:06.475Z,12.09
2022-09-28T00:13:33.356Z,12.17
2022-09-28T00:16:02.614Z,12.19
2022-09-28T00:18:29.245Z,12.09
2022-09-28T00:21:01.777Z,12.14
2022-09-28T00:23:28.208Z,12.21
2022-09-28T00:25:54.530Z,12.17
2022-09-28T00:28:20.880Z,12.15
2022-09-28T00:30:47.225Z,11.94
2022-09-28T00:33:13.556Z,11.86
2022-09-28T00:35:39.899Z,11.97
2022-09-28T00:38:09.203Z,11.82
2022-09-28T00:40:35.679Z,11.77
2022-09-28T00:43:16.357Z,11.98
2022-09-28T00:45:43.257Z,11.79
2022-09-28T00:48:10.071Z,11.96
2022-09-28T00:50:37.163Z,11.72
2022-09-28T00:53:03.516Z,11.71
2022-09-28T00:55:37.502Z,11.33
2022-09-28T00:58:05.552Z,11.79
2022-09-28T01:00:32.188Z,11.92
2022-09-28T01:02:59.724Z,11.86
2022-09-28T01:05:26.924Z,11.77
2022-09-28T01:07:55.127Z,11.98
2022-09-28T01:10:21.473Z,11.91
2022-09-28T01:12:47.995Z,11.73
2022-09-28T01:15:15.536Z,11.87
2022-09-28T01:17:42.933Z,11.93
2022-09-28T01:20:12.696Z,11.92
2022-09-28T01:22:45.561Z,11.92
2022-09-28T01:25:31.351Z,11.88
2022-09-28T01:27:59.677Z,11.84
2022-09-28T01:30:26.599Z,11.90
2022-09-28T01:33:01.784Z,11.93
2022-09-28T01:35:32.857Z,11.87
2022-09-28T01:38:05.514Z,11.88
2022-09-28T01:40:32.470Z,11.87
2022-09-28T01:43:08.585Z,11.76
2022-09-28T01:45:46.954Z,11.87
2022-09-28T01:48:17.184Z,11.86
2022-09-28T01:50:45.420Z,11.78
2022-09-28T01:53:23.719Z,11.77
2022-09-28T01:55:55.436Z,11.72
2022-09-28T01:58:24.485Z,11.71
2022-09-28T02:00:54.960Z,11.62
2022-09-28T02:03:29.297Z,11.57
2022-09-28T02:06:04.060Z,11.59
2022-09-28T02:08:35.996Z,11.60
2022-09-28T02:11:10.771Z,11.57
2022-09-28T02:13:42.590Z,11.60
2022-09-28T02:16:18.198Z,11.59
2022-09-28T02:18:45.907Z,11.55
2022-09-28T02:21:20.332Z,11.59
2022-09-28T02:23:56.792Z,11.48
2022-09-28T02:26:27.101Z,11.40
2022-09-28T02:28:53.439Z,11.48
2022-09-28T02:31:20.022Z,11.41
2022-09-28T02:33:47.392Z,11.49
2022-09-28T02:36:14.516Z,11.44
2022-09-28T02:38:42.013Z,11.40
2022-09-28T02:41:11.400Z,11.40
2022-09-28T02:43:47.164Z,11.33
2022-09-28T02:46:27.340Z,11.12
2022-09-28T02:49:21.688Z,11.20
2022-09-28T02:51:52.732Z,11.26
2022-09-28T02:54:23.330Z,11.13
2022-09-28T02:56:52.884Z,10.94
2022-09-28T02:59:25.259Z,11.16
2022-09-28T03:02:00.917Z,11.05
2022-09-28T03:04:33.217Z,11.19
2022-09-28T03:07:09.119Z,11.28
2022-09-28T03:09:49.784Z,11.39
2022-09-28T03:12:18.411Z,11.39
2022-09-28T03:14:45.251Z,11.42
2022-09-28T03:17:11.670Z,11.41
2022-09-28T03:19:39.711Z,11.43
2022-09-28T03:22:06.157Z,11.06
2022-09-28T03:24:32.551Z,11.20
2022-09-28T03:26:58.924Z,11.05
2022-09-28T03:29:25.368Z,11.19
2022-09-28T03:31:58.017Z,11.26
2022-09-28T03:34:24.430Z,11.11
2022-09-28T03:36:51.397Z,11.03
2022-09-28T03:39:17.895Z,11.24
2022-09-28T03:41:44.373Z,11.13
2022-09-28T03:44:10.727Z,11.14
2022-09-28T03:46:37.968Z,11.16
2022-09-28T03:49:08.863Z,11.16
2022-09-28T03:51:35.214Z,11.12
2022-09-28T03:54:01.607Z,10.63
2022-09-28T03:56:27.982Z,10.81
2022-09-28T03:58:54.379Z,11.01
2022-09-28T04:01:20.851Z,11.15
2022-09-28T04:03:47.613Z,11.20
2022-09-28T04:06:14.513Z,11.18
2022-09-28T04:08:40.906Z,11.15
2022-09-28T04:11:08.376Z,11.20
2022-09-28T04:13:34.816Z,11.23
2022-09-28T04:16:02.097Z,11.23
2022-09-28T04:18:32.847Z,11.14
2022-09-28T04:21:13.525Z,11.15
2022-09-28T04:23:44.572Z,11.24
2022-09-28T04:26:21.683Z,11.17
2022-09-28T04:29:07.402Z,10.90
2022-09-28T04:31:38.917Z,11.19
2022-09-28T04:34:05.426Z,11.10
2022-09-28T04:36:32.524Z,10.93
2022-09-28T04:38:59.941Z,11.08
2022-09-28T04:41:28.086Z,10.78
2022-09-28T04:43:55.548Z,10.99
2022-09-28T04:46:24.392Z,11.12
2022-09-28T04:49:13.440Z,11.15
2022-09-28T04:52:03.531Z,11.10
2022-09-28T04:54:29.911Z,11.02
2022-09-28T04:56:56.959Z,11.06
2022-09-28T04:59:24.160Z,11.18
2022-09-28T05:01:50.622Z,11.01
2022-09-28T05:04:28.991Z,11.09
2022-09-28T05:07:13.733Z,11.07
2022-09-28T05:09:40.143Z,11.20
2022-09-28T05:12:08.072Z,10.98
2022-09-28T05:14:34.464Z,11.07
2022-09-28T05:17:00.941Z,11.07
2022-09-28T05:19:27.694Z,10.93
2022-09-28T05:22:04.360Z,11.09
2022-09-28T05:24:35.950Z,11.14
2022-09-28T05:27:03.924Z,11.15
2022-09-28T05:29:32.435Z,10.80
2022-09-28T05:32:44.180Z,10.83
2022-09-28T05:35:40.702Z,10.83
2022-09-28T05:38:07.108Z,10.92
2022-09-28T05:40:33.635Z,10.97
2022-09-28T05:43:03.073Z,10.91
2022-09-28T05:45:31.057Z,10.91
2022-09-28T05:47:57.444Z,10.65
2022-09-28T05:50:24.174Z,10.63
2022-09-28T05:52:57.340Z,10.50
2022-09-28T05:55:24.253Z,10.64
2022-09-28T05:57:50.748Z,10.70
2022-09-28T06:00:17.121Z,10.82
2022-09-28T06:02:57.199Z,10.58
2022-09-28T06:05:24.601Z,10.75
2022-09-28T06:07:51.084Z,10.55
2022-09-28T06:10:17.475Z,10.56
2022-09-28T06:12:45.486Z,10.97
2022-09-28T06:15:15.382Z,10.88
2022-09-28T06:17:43.746Z,10.81
2022-09-28T06:20:30.069Z,10.79
2022-09-28T06:23:07.708Z,10.46
2022-09-28T06:25:34.088Z,10.60
2022-09-28T06:28:01.733Z,10.53
2022-09-28T06:30:29.280Z,10.37
2022-09-28T06:32:57.032Z,10.61
2022-09-28T06:35:25.329Z,10.44
2022-09-28T06:37:51.945Z,10.54
2022-09-28T06:40:19.083Z,10.65
2022-09-28T06:42:55.950Z,10.52
2022-09-28T06:45:41.713Z,10.53
2022-09-28T06:48:28.481Z,10.64
2022-09-28T06:50:55.991Z,10.74
2022-09-28T06:53:33.428Z,10.92
2022-09-28T06:56:10.379Z,10.90
2022-09-28T06:58:36.869Z,10.85
2022-09-28T07:01:03.991Z,10.58
2022-09-28T07:03:40.637Z,10.53
2022-09-28T07:06:23.992Z,10.81
2022-09-28T07:09:29.260Z,10.48
2022-09-28T07:12:15.915Z,10.47
2022-09-28T07:14:50.165Z,10.50
2022-09-28T07:17:16.856Z,10.70
2022-09-28T07:19:43.309Z,10.93
2022-09-28T07:22:16.134Z,10.97
2022-09-28T07:24:45.830Z,10.82
2022-09-28T07:27:41.020Z,10.55
2022-09-28T07:30:17.166Z,10.68
2022-09-28T07:33:02.760Z,11.03
2022-09-28T07:35:52.267Z,11.11
2022-09-28T07:38:19.870Z,10.80
2022-09-28T07:41:05.161Z,11.08
2022-09-28T07:43:32.381Z,10.88
2022-09-28T07:45:58.919Z,10.96
2022-09-28T07:48:25.673Z,11.18
2022-09-28T07:51:10.473Z,11.13
2022-09-28T07:53:42.324Z,11.26
2022-09-28T07:56:24.067Z,11.09
2022-09-28T07:59:08.861Z,11.27
2022-09-28T08:01:53.618Z,11.03
2022-09-28T08:04:20.522Z,11.10
2022-09-28T08:06:48.207Z,11.45
2022-09-28T08:09:14.686Z,11.45
2022-09-28T08:11:59.880Z,11.60
2022-09-28T08:14:41.654Z,11.35
2022-09-28T08:17:33.145Z,11.18
2022-09-28T08:20:22.621Z,11.29
2022-09-28T08:22:49.094Z,11.58
2022-09-28T08:25:15.599Z,11.53
2022-09-28T08:27:42.085Z,11.20
2022-09-28T08:30:09.036Z,11.41
2022-09-28T08:32:51.748Z,10.88
2022-09-28T08:35:38.919Z,11.19
2022-09-28T08:38:26.614Z,11.39
2022-09-28T08:41:30.521Z,11.36
2022-09-28T08:44:24.099Z,11.43
2022-09-28T08:47:44.327Z,11.37
2022-09-28T08:50:25.843Z,11.62
2022-09-28T08:53:02.870Z,11.77
2022-09-28T08:55:49.788Z,11.58
2022-09-28T08:58:25.662Z,11.60
2022-09-28T09:00:54.095Z,11.40
2022-09-28T09:03:25.565Z,11.52
2022-09-28T09:06:07.970Z,11.35
2022-09-28T09:08:51.249Z,11.25
2022-09-28T09:11:34.099Z,11.41
2022-09-28T09:14:12.733Z,11.49
2022-09-28T09:16:49.269Z,11.71
2022-09-28T09:19:35.558Z,11.77
2022-09-28T09:22:21.531Z,11.76
2022-09-28T09:24:49.594Z,11.48
2022-09-28T09:27:36.695Z,11.48
2022-09-28T09:30:06.264Z,11.92
2022-09-28T09:32:35.560Z,11.93
2022-09-28T09:35:11.475Z,12.06
2022-09-28T09:38:04.164Z,11.86
2022-09-28T09:41:07.042Z,11.99
2022-09-28T09:44:15.149Z,11.95
2022-09-28T09:47:06.138Z,11.78
2022-09-28T09:50:05.539Z,12.04
2022-09-28T09:52:36.992Z,12.04
2022-09-28T09:55:14.570Z,12.13
2022-09-28T09:57:52.959Z,12.05
2022-09-28T10:00:47.909Z,12.26
2022-09-28T10:03:26.828Z,12.17
2022-09-28T10:06:17.240Z,12.39
2022-09-28T10:08:53.787Z,12.43
2022-09-28T10:11:36.032Z,12.27
2022-09-28T10:14:03.334Z,12.54
2022-09-28T10:16:44.763Z,12.76
2022-09-28T10:19:19.294Z,12.64
2022-09-28T10:22:05.950Z,12.53
2022-09-28T10:24:33.859Z,12.27
2022-09-28T10:27:05.752Z,12.46
2022-09-28T10:29:39.855Z,12.83
2022-09-28T10:32:17.993Z,12.88
2022-09-28T10:34:50.121Z,12.90
2022-09-28T10:37:19.144Z,12.53
2022-09-28T10:40:06.080Z,12.68
2022-09-28T10:42:36.096Z,12.66
2022-09-28T10:45:22.938Z,12.79
2022-09-28T10:47:49.706Z,12.86
2022-09-28T10:50:22.677Z,12.93
2022-09-28T10:52:54.230Z,13.18
2022-09-28T10:55:39.303Z,13.04
2022-09-28T10:58:24.045Z,12.89
2022-09-28T11:00:50.724Z,12.88
2022-09-28T11:03:29.759Z,12.94
2022-09-28T11:06:02.099Z,13.03
2022-09-28T11:08:31.149Z,13.28
2022-09-28T11:11:20.846Z,13.01
2022-09-28T11:13:55.810Z,13.17
2022-09-28T11:16:33.636Z,13.17
2022-09-28T11:19:20.130Z,13.22
2022-09-28T11:21:48.045Z,13.52
2022-09-28T11:24:21.051Z,13.65
2022-09-28T11:26:50.105Z,13.43
2022-09-28T11:29:23.439Z,13.63
2022-09-28T11:32:05.933Z,13.77
2022-09-28T11:34:59.201Z,13.82
2022-09-28T11:37:27.853Z,13.91
2022-09-28T11:39:56.002Z,13.82
2022-09-28T11:42:38.120Z,13.67
2022-09-28T11:45:18.165Z,13.56
2022-09-28T11:47:47.107Z,13.60
2022-09-28T11:50:22.996Z,13.61
2022-09-28T11:53:10.102Z,13.24
2022-09-28T11:55:40.378Z,13.46
2022-09-28T11:58:25.688Z,13.57
2022-09-28T12:00:56.365Z,13.37
2022-09-28T12:03:37.503Z,13.46
2022-09-28T12:06:06.491Z,13.63
2022-09-28T12:08:40.268Z,13.69
2022-09-28T12:11:29.616Z,13.51
2022-09-28T12:14:26.298Z,13.73
2022-09-28T12:17:11.505Z,13.87
2022-09-28T12:19:37.864Z,14.06
2022-09-28T12:22:10.833Z,13.95
2022-09-28T12:24:39.401Z,14.14
2022-09-28T12:27:05.771Z,14.11
2022-09-28T12:29:40.997Z,14.07
2022-09-28T12:32:25.440Z,13.88
2022-09-28T12:34:51.875Z,14.03
2022-09-28T12:37:18.194Z,13.74
2022-09-28T12:40:00.443Z,13.70
2022-09-28T12:42:41.037Z,13.85
2022-09-28T12:45:08.695Z,14.12
2022-09-28T12:47:49.938Z,14.19
2022-09-28T12:50:40.251Z,13.89
2022-09-28T12:53:33.944Z,13.80
2022-09-28T12:56:21.490Z,13.87
2022-09-28T12:58:48.412Z,13.85
2022-09-28T13:01:15.026Z,14.03
2022-09-28T13:03:45.533Z,14.15
2022-09-28T13:06:11.919Z,14.09
2022-09-28T13:08:53.238Z,14.00
2022-09-28T13:11:37.645Z,14.00
2022-09-28T13:14:04.029Z,14.06
2022-09-28T13:16:47.216Z,14.07
2022-09-28T13:19:20.320Z,14.24
2022-09-28T13:21:59.568Z,14.27
2022-09-28T13:24:33.299Z,14.08
2022-09-28T13:27:06.861Z,14.42
2022-09-28T13:29:34.906Z,14.36
2022-09-28T13:32:03.192Z,13.97
2022-09-28T13:34:32.429Z,14.06
2022-09-28T13:37:10.051Z,14.04
2022-09-28T13:39:37.457Z,14.29
2022-09-28T13:42:05.872Z,14.55
2022-09-28T13:44:32.216Z,14.23
2022-09-28T13:47:10.019Z,14.20
2022-09-28T13:49:36.375Z,14.09
2022-09-28T13:52:02.976Z,14.12
2022-09-28T13:54:50.444Z,14.19
2022-09-28T13:57:27.187Z,14.14
2022-09-28T13:59:59.547Z,14.34
2022-09-28T14:02:25.980Z,14.48
2022-09-28T14:05:11.058Z,14.06
2022-09-28T14:07:37.396Z,14.32
2022-09-28T14:10:10.134Z,14.05
2022-09-28T14:12:36.475Z,14.16
2022-09-28T14:15:06.417Z,14.11
2022-09-28T14:17:32.778Z,14.16
2022-09-28T14:20:01.201Z,14.09
2022-09-28T14:22:44.852Z,14.32
2022-09-28T14:25:11.219Z,14.05
2022-09-28T14:27:37.732Z,14.31
2022-09-28T14:30:06.999Z,14.47
2022-09-28T14:32:36.903Z,14.13
2022-09-28T14:35:04.830Z,14.50
2022-09-28T14:37:54.990Z,14.16
2022-09-28T14:40:49.519Z,14.28
2022-09-28T14:43:25.623Z,14.20
2022-09-28T14:46:23.153Z,14.29
2022-09-28T14:48:52.772Z,14.22
2022-09-28T14:51:39.150Z,14.37
2022-09-28T14:54:13.336Z,14.42
2022-09-28T14:56:51.845Z,14.38
2022-09-28T14:59:19.705Z,14.48
2022-09-28T15:01:52.172Z,14.69
2022-09-28T15:04:19.229Z,14.86
2022-09-28T15:06:49.996Z,14.78
2022-09-28T15:09:36.107Z,14.87
2022-09-28T15:12:10.057Z,14.87
2022-09-28T15:14:44.362Z,14.71
2022-09-28T15:17:12.198Z,14.79
2022-09-28T15:19:44.725Z,14.70
2022-09-28T15:22:17.656Z,14.20
2022-09-28T15:24:58.727Z,14.50
2022-09-28T15:27:35.576Z,14.18
2022-09-28T15:30:16.198Z,13.94
2022-09-28T15:32:42.573Z,13.67
2022-09-28T15:35:11.722Z,13.47
2022-09-28T15:37:40.679Z,13.50
2022-09-28T15:40:12.715Z,13.40
2022-09-28T15:42:39.167Z,13.92
2022-09-28T15:45:08.619Z,13.45
2022-09-28T15:47:39.894Z,12.89
2022-09-28T15:50:09.166Z,13.12
2022-09-28T15:52:37.784Z,13.07
2022-09-28T15:55:12.489Z,13.35
2022-09-28T15:57:39.945Z,13.61
2022-09-28T16:00:21.786Z,13.09
2022-09-28T16:03:20.382Z,12.64
2022-09-28T16:05:49.422Z,12.27
2022-09-28T16:08:21.245Z,13.03
2022-09-28T16:10:56.653Z,13.37
2022-09-28T16:13:24.215Z,12.70
2022-09-28T16:15:55.467Z,12.73
2022-09-28T16:18:23.478Z,12.48
2022-09-28T16:20:51.481Z,12.55
2022-09-28T16:23:17.909Z,12.67
2022-09-28T16:25:51.648Z,12.59
2022-09-28T16:28:25.185Z,12.54
2022-09-28T16:31:06.557Z,12.52
2022-09-28T16:33:40.578Z,12.67
2022-09-28T16:36:12.301Z,12.76
2022-09-28T16:38:38.785Z,12.42
2022-09-28T16:41:05.700Z,11.98
2022-09-28T16:43:34.906Z,12.31
2022-09-28T16:46:13.101Z,12.59
2022-09-28T16:48:48.655Z,12.50
2022-09-28T16:51:19.194Z,12.50
2022-09-28T16:54:04.403Z,12.79
2022-09-28T16:56:34.292Z,12.62
2022-09-28T16:59:02.060Z,13.14
2022-09-28T17:01:30.045Z,13.12
2022-09-28T17:03:56.739Z,13.18
2022-09-28T17:06:26.929Z,13.31
2022-09-28T17:08:56.522Z,13.37
2022-09-28T17:11:24.892Z,12.98
2022-09-28T17:13:52.037Z,12.63
2022-09-28T17:16:32.270Z,12.78
2022-09-28T17:19:03.452Z,12.52
2022-09-28T17:21:29.841Z,12.85
2022-09-28T17:23:56.257Z,13.14
2022-09-28T17:26:29.211Z,13.23
2022-09-28T17:28:55.682Z,13.33
2022-09-28T17:31:22.129Z,13.29
2022-09-28T17:33:48.542Z,13.35
2022-09-28T17:36:16.021Z,13.37
2022-09-28T17:38:42.888Z,13.34
2022-09-28T17:41:16.799Z,13.33
2022-09-28T17:43:46.240Z,13.29
2022-09-28T17:46:32.876Z,13.31
2022-09-28T17:49:00.428Z,13.21
2022-09-28T17:51:30.960Z,13.20
2022-09-28T17:53:57.540Z,13.20
2022-09-28T17:56:26.471Z,13.21
2022-09-28T17:58:56.964Z,13.18
2022-09-28T18:01:23.719Z,13.19
2022-09-28T18:03:50.373Z,13.20
2022-09-28T18:06:20.137Z,13.17
2022-09-28T18:08:46.733Z,13.12
2022-09-28T18:11:13.100Z,13.14
2022-09-28T18:13:40.491Z,13.11
2022-09-28T18:16:06.999Z,13.09
2022-09-28T18:18:36.583Z,13.07
2022-09-28T18:21:02.935Z,13.03
2022-09-28T18:23:29.440Z,13.03
2022-09-28T18:25:55.817Z,13.02
2022-09-28T18:28:22.994Z,13.01
2022-09-28T18:30:49.423Z,12.98
2022-09-28T18:33:15.834Z,12.97
2022-09-28T18:35:49.732Z,12.93
2022-09-28T18:38:16.129Z,12.91
2022-09-28T18:40:43.026Z,12.92
2022-09-28T18:43:09.435Z,12.90
2022-09-28T18:45:35.957Z,12.88
2022-09-28T18:48:02.777Z,12.84
2022-09-28T18:50:29.318Z,12.81
2022-09-28T18:53:11.236Z,12.81
2022-09-28T18:55:39.127Z,12.80
2022-09-28T18:58:06.402Z,12.78
2022-09-28T19:00:33.666Z,12.74
2022-09-28T19:03:01.480Z,12.71
2022-09-28T19:05:28.324Z,12.66
2022-09-28T19:07:55.064Z,12.66
2022-09-28T19:10:21.458Z,12.69
2022-09-28T19:12:47.986Z,12.69
2022-09-28T19:15:14.435Z,12.66
2022-09-28T19:17:40.827Z,12.62
2022-09-28T19:20:07.578Z,12.58
2022-09-28T19:22:33.974Z,12.57
2022-09-28T19:25:00.483Z,12.52
2022-09-28T19:27:26.862Z,12.55
2022-09-28T19:29:53.196Z,12.53
2022-09-28T19:32:19.548Z,12.48
2022-09-28T19:34:45.901Z,12.49
2022-09-28T19:37:12.262Z,12.50
2022-09-28T19:39:38.621Z,12.45
2022-09-28T19:42:05.016Z,12.43
2022-09-28T19:44:32.883Z,12.41
2022-09-28T19:47:07.349Z,12.37
2022-09-28T19:49:37.805Z,12.31
2022-09-28T19:52:20.765Z,12.28
2022-09-28T19:54:56.653Z,12.26
2022-09-28T19:57:24.729Z,12.26
2022-09-28T19:59:53.289Z,12.26
2022-09-28T20:02:21.272Z,12.23
2022-09-28T20:04:47.704Z,12.24
2022-09-28T20:07:14.348Z,12.28
2022-09-28T20:09:41.048Z,12.24
2022-09-28T20:12:07.632Z,12.24
2022-09-28T20:14:37.965Z,12.16
2022-09-28T20:17:06.599Z,12.11
2022-09-28T20:19:33.499Z,12.13
2022-09-28T20:22:02.478Z,12.11
2022-09-28T20:24:29.219Z,12.10
2022-09-28T20:26:55.841Z,12.07
2022-09-28T20:29:22.972Z,12.08
2022-09-28T20:31:49.342Z,12.04
2022-09-28T20:34:15.810Z,12.05
2022-09-28T20:36:44.464Z,12.05
2022-09-28T20:39:11.269Z,12.02
2022-09-28T20:41:37.713Z,12.03
2022-09-28T20:44:05.915Z,11.99
2022-09-28T20:46:33.218Z,11.97
2022-09-28T20:48:59.823Z,11.99
2022-09-28T20:51:26.314Z,11.92
2022-09-28T20:53:53.652Z,11.91
2022-09-28T20:56:21.820Z,11.88
2022-09-28T20:58:50.876Z,11.85
2022-09-28T21:01:18.888Z,11.85
2022-09-28T21:03:52.708Z,11.84
2022-09-28T21:06:20.328Z,11.79
2022-09-28T21:08:46.736Z,11.77
2022-09-28T21:11:14.059Z,11.77
2022-09-28T21:13:42.773Z,11.77
2022-09-28T21:16:10.654Z,11.75
2022-09-28T21:18:37.547Z,11.70
2022-09-28T21:21:05.759Z,11.73
2022-09-28T21:23:32.132Z,11.68
2022-09-28T21:26:05.868Z,11.69
2022-09-28T21:28:32.824Z,11.65
2022-09-28T21:30:59.629Z,11.59
2022-09-28T21:33:26.066Z,11.66
2022-09-28T21:35:52.532Z,11.63
2022-09-28T21:38:18.913Z,11.57
2022-09-28T21:40:45.369Z,11.58
2022-09-28T21:43:12.073Z,11.56
2022-09-28T21:45:39.534Z,11.50
2022-09-28T21:48:05.948Z,11.48
2022-09-28T21:50:33.196Z,11.48
2022-09-28T21:53:00.158Z,11.47
2022-09-28T21:55:26.536Z,11.44
2022-09-28T21:57:52.929Z,11.45
2022-09-28T22:00:22.994Z,11.40
2022-09-28T22:02:49.850Z,11.37
2022-09-28T22:05:16.867Z,11.34
2022-09-28T22:07:43.391Z,11.31
2022-09-28T22:10:13.998Z,11.32
2022-09-28T22:12:40.410Z,11.28
2022-09-28T22:15:07.133Z,11.27
2022-09-28T22:17:33.529Z,11.19
2022-09-28T22:19:59.988Z,11.22
2022-09-28T22:22:29.196Z,11.18
2022-09-28T22:24:56.074Z,11.20
2022-09-28T22:27:22.545Z,11.25
2022-09-28T22:29:49.146Z,11.21
2022-09-28T22:32:15.488Z,11.17
2022-09-28T22:34:41.904Z,11.16
2022-09-28T22:37:08.339Z,11.19
2022-09-28T22:39:37.731Z,11.21
2022-09-28T22:42:08.158Z,11.16
2022-09-28T22:44:35.667Z,11.16
2022-09-28T22:47:03.426Z,11.19
2022-09-28T22:49:29.812Z,11.19
2022-09-28T22:51:56.189Z,11.15
2022-09-28T22:54:22.575Z,11.11
2022-09-28T22:56:48.900Z,11.11
2022-09-28T22:59:15.281Z,11.12
2022-09-28T23:01:41.684Z,11.09
2022-09-28T23:04:08.963Z,11.09
2022-09-28T23:06:35.306Z,11.03
2022-09-28T23:09:01.669Z,11.02
2022-09-28T23:11:28.831Z,11.10
2022-09-28T23:13:56.450Z,11.10
2022-09-28T23:16:25.322Z,11.00
2022-09-28T23:18:52.503Z,11.08
2022-09-28T23:21:20.403Z,11.04
2022-09-28T23:23:50.484Z,11.06
2022-09-28T23:26:18.296Z,10.90
2022-09-28T23:28:45.016Z,11.01
2022-09-28T23:31:13.313Z,11.02
2022-09-28T23:33:39.805Z,10.96
2022-09-28T23:36:06.433Z,10.98
2022-09-28T23:38:32.789Z,10.83
2022-09-28T23:40:59.180Z,10.62
2022-09-28T23:43:25.747Z,10.62
2022-09-28T23:45:52.419Z,10.82
2022-09-28T23:48:18.773Z,10.61
2022-09-28T23:50:45.441Z,10.81
2022-09-28T23:53:14.034Z,10.68
2022-09-28T23:55:41.877Z,10.59
2022-09-28T23:58:08.283Z,10.73
